Time;durP1;ratioP1;P1;durP2;ratioP2;P2;SDS_P1;SDS_P2;PMS_P1;PMS_P2;Temp;Humidity;BMP_temperature;BMP_pressure;BME280_temperature;BME280_humidity;BME280_pressure;Samples;Min_cycle;Max_cycle;Signal;HPM_P1;HPM_P2
2023/10/29 00:02:06;;;;;;;;;0.25;0.25;;;;;-143.90;100.00;74746.34;4992716;27;103503;-80
2023/10/29 00:04:35;;;;;;;;;2.00;2.00;;;;;-143.90;100.00;74740.16;4989466;27;102099;-80
2023/10/29 00:07:03;;;;;;;;;2.25;1.00;;;;;-143.90;100.00;74736.03;4988346;28;101655;-80
2023/10/29 00:09:30;;;;;;;;;2.50;2.25;;;;;-143.90;100.00;74742.22;4986340;27;101629;-80
2023/10/29 00:11:57;;;;;;;;;4.50;3.25;;;;;-143.90;100.00;74740.16;4989824;27;103494;-80
2023/10/29 00:14:24;;;;;;;;;2.00;2.00;;;;;-143.90;100.00;74733.97;4986981;27;102996;-78
2023/10/29 00:16:51;;;;;;;;;2.50;2.50;;;;;-143.90;100.00;74727.75;4992048;27;101663;-79
2023/10/29 00:19:18;;;;;;;;;2.00;2.00;;;;;-143.90;100.00;74729.81;4988818;27;101523;-79
2023/10/29 00:21:45;;;;;;;;;1.75;1.75;;;;;-143.90;100.00;74725.69;4985525;28;103821;-79
2023/10/29 00:24:12;;;;;;;;;1.25;1.25;;;;;-143.90;100.00;74725.69;4991436;27;101833;-79
2023/10/29 00:26:39;;;;;;;;;1.00;1.00;;;;;-143.90;100.00;74717.41;4990748;27;101758;-80
2023/10/29 00:29:06;;;;;;;;;2.50;2.50;;;;;-143.90;100.00;74719.47;4970550;28;102805;-78
2023/10/29 00:31:32;;;;;;;;;2.00;1.00;;;;;-143.90;100.00;74709.16;4979007;28;102514;-79
2023/10/29 00:33:59;;;;;;;;;2.50;2.00;;;;;-143.90;100.00;74713.28;4978387;28;103308;-79
2023/10/29 00:36:25;;;;;;;;;0.00;0.00;;;;;-143.90;100.00;74700.88;4993015;27;102556;-79
2023/10/29 00:38:52;;;;;;;;;1.75;1.25;;;;;-143.90;100.00;74700.88;4988588;27;102096;-79
2023/10/29 00:41:19;;;;;;;;;1.00;1.00;;;;;-143.90;100.00;74698.81;4983046;28;102741;-79
2023/10/29 00:43:45;;;;;;;;;1.00;1.00;;;;;-143.90;100.00;74700.88;4988824;28;103264;-78
2023/10/29 00:46:14;;;;;;;;;1.00;1.00;;;;;-143.90;100.00;74696.75;4991324;27;101992;-78
2023/10/29 00:48:41;;;;;;;;;2.00;1.50;;;;;-143.90;100.00;74700.88;4958323;28;1192361;-76
2023/10/29 00:51:09;;;;;;;;;2.00;0.75;;;;;-143.90;100.00;74705.00;4994594;27;103616;-79
2023/10/29 00:53:36;;;;;;;;;0.75;0.25;;;;;-143.90;100.00;74707.09;4986993;28;101879;-79
2023/10/29 00:56:04;;;;;;;;;0.00;0.00;;;;;-143.90;100.00;74713.28;4989326;27;102016;-79
2023/10/29 00:58:31;;;;;;;;;1.50;1.00;;;;;-143.90;100.00;74713.28;4978265;28;102237;-78
2023/10/29 01:00:58;;;;;;;;;1.50;1.00;;;;;-143.90;100.00;74721.56;4988869;28;103272;-79
2023/10/29 01:03:24;;;;;;;;;1.25;1.25;;;;;-143.90;100.00;74719.47;4991026;27;101748;-79
2023/10/29 01:05:51;;;;;;;;;2.00;2.00;;;;;-143.90;100.00;74729.81;4987117;27;101893;-78
2023/10/29 01:08:19;;;;;;;;;7.25;7.00;;;;;-143.90;100.00;74736.03;4969361;28;101547;-80
2023/10/29 01:10:46;;;;;;;;;7.50;7.00;;;;;-143.90;100.00;74742.22;4977983;28;103548;-80
2023/10/29 01:13:13;;;;;;;;;8.50;7.50;;;;;-143.90;100.00;74742.22;4995102;27;101811;-79
2023/10/29 01:15:40;;;;;;;;;8.25;7.25;;;;;-143.90;100.00;74746.34;4997667;27;101862;-78
2023/10/29 01:18:06;;;;;;;;;6.50;6.00;;;;;-143.90;100.00;74746.34;4970804;28;101613;-79
2023/10/29 01:20:33;;;;;;;;;3.00;2.00;;;;;-143.90;100.00;74744.28;4971202;28;103372;-79
2023/10/29 01:23:01;;;;;;;;;6.25;5.00;;;;;-143.90;100.00;74744.28;4997861;27;101749;-78
2023/10/29 01:25:28;;;;;;;;;7.25;5.00;;;;;-143.90;100.00;74740.16;4995291;27;104772;-79
2023/10/29 01:27:54;;;;;;;;;4.00;4.00;;;;;-143.90;100.00;74736.03;4991039;27;102593;-80
2023/10/29 01:30:24;;;;;;;;;3.25;3.00;;;;;-143.90;100.00;74733.97;4991473;27;103587;-80
2023/10/29 01:32:51;;;;;;;;;3.75;3.00;;;;;-143.90;100.00;74727.75;4985945;28;102004;-79
2023/10/29 01:35:17;;;;;;;;;4.00;3.00;;;;;-143.90;100.00;74725.69;4999120;27;102100;-79
2023/10/29 01:37:44;;;;;;;;;2.00;1.25;;;;;-143.90;100.00;74725.69;4997106;27;101992;-79
2023/10/29 01:40:12;;;;;;;;;3.00;2.00;;;;;-143.90;100.00;74731.88;4650469;27;10000219;-80
2023/10/29 01:42:38;;;;;;;;;1.00;0.25;;;;;-143.90;100.00;74738.09;4976663;28;107957;-80
2023/10/29 01:45:05;;;;;;;;;4.00;3.50;;;;;-143.90;100.00;74742.22;4988440;28;101929;-80
2023/10/29 01:47:32;;;;;;;;;4.00;3.75;;;;;-143.90;100.00;74746.34;4999711;27;101765;-80
2023/10/29 01:49:59;;;;;;;;;3.50;3.25;;;;;-143.90;100.00;74750.50;4999369;27;101805;-80
2023/10/29 01:52:26;;;;;;;;;4.00;3.25;;;;;-143.90;100.00;74756.69;4992025;27;103574;-79
2023/10/29 01:54:53;;;;;;;;;4.00;4.00;;;;;-143.90;100.00;74758.75;4987786;27;101799;-79
2023/10/29 01:57:20;;;;;;;;;2.25;2.00;;;;;-143.90;100.00;74754.63;4990074;28;101786;-78
2023/10/29 01:59:47;;;;;;;;;4.00;2.75;;;;;-143.90;100.00;74754.63;5001832;27;101738;-79
2023/10/29 02:02:14;;;;;;;;;5.00;4.00;;;;;-143.90;100.00;74767.03;4971888;28;107830;-80
2023/10/29 02:04:40;;;;;;;;;9.25;8.00;;;;;-143.90;100.00;74769.09;4992052;28;101568;-80
2023/10/29 02:07:07;;;;;;;;;4.50;4.50;;;;;-143.90;100.00;74769.09;4972530;28;101848;-79
2023/10/29 02:09:34;;;;;;;;;3.00;2.25;;;;;-143.90;100.00;74767.03;4980573;28;101957;-78
2023/10/29 02:12:00;;;;;;;;;1.00;0.25;;;;;-143.90;100.00;74773.22;4979113;28;103372;-79
2023/10/29 02:14:28;;;;;;;;;1.75;1.75;;;;;-143.90;100.00;74754.63;4992705;27;101839;-79
2023/10/29 02:16:55;;;;;;;;;3.50;2.00;;;;;-143.90;100.00;74754.63;4993351;28;101752;-80
2023/10/29 02:19:22;;;;;;;;;2.75;2.75;;;;;-143.90;100.00;74750.50;4973440;28;101719;-80
2023/10/29 02:21:53;;;;;;;;;1.50;1.00;;;;;-143.90;100.00;74760.81;4998982;27;103644;-79
2023/10/29 02:24:19;;;;;;;;;0.00;0.00;;;;;-143.90;100.00;74752.56;4993767;27;101547;-78
2023/10/29 02:26:46;;;;;;;;;2.25;2.25;;;;;-143.90;100.00;74748.44;4998808;27;102097;-79
2023/10/29 02:29:12;;;;;;;;;1.00;1.00;;;;;-143.90;100.00;74752.56;4993215;27;101984;-79
2023/10/29 02:31:39;;;;;;;;;1.00;1.00;;;;;-143.90;100.00;74752.56;4988966;28;103595;-79
2023/10/29 02:34:06;;;;;;;;;1.50;1.50;;;;;-143.90;100.00;74750.50;4997251;28;101540;-79
2023/10/29 02:36:33;;;;;;;;;1.25;1.25;;;;;-143.90;100.00;74756.69;4994693;27;102219;-79
2023/10/29 02:39:00;;;;;;;;;0.00;0.00;;;;;-143.90;100.00;74758.75;4981450;28;101860;-79
2023/10/29 02:41:26;;;;;;;;;0.75;0.75;;;;;-143.90;100.00;74762.91;4990922;27;103907;-80
2023/10/29 02:43:55;;;;;;;;;1.00;0.25;;;;;-143.90;100.00;74756.69;4988248;27;102111;-78
2023/10/29 02:46:21;;;;;;;;;1.00;0.00;;;;;-143.90;100.00;74760.81;4997788;27;101637;-78
2023/10/29 02:48:48;;;;;;;;;2.00;2.00;;;;;-143.90;100.00;74771.16;4998399;27;101995;-78
2023/10/29 02:51:15;;;;;;;;;1.75;1.50;;;;;-143.90;100.00;74754.63;4975574;28;108017;-78
2023/10/29 02:53:41;;;;;;;;;1.00;1.00;;;;;-143.90;100.00;74754.63;4992115;28;101877;-79
2023/10/29 02:56:08;;;;;;;;;3.50;2.00;;;;;-143.90;100.00;74758.75;4989677;28;102702;-77
2023/10/29 02:58:35;;;;;;;;;2.00;2.00;;;;;-143.90;100.00;74758.75;5001298;27;101808;-79
2023/10/29 03:01:09;;;;;;;;;3.00;3.00;;;;;-143.90;100.00;74754.63;4995323;27;103261;-80
2023/10/29 03:03:36;;;;;;;;;0.75;0.75;;;;;-143.90;100.00;74758.75;4993374;28;102081;-79
2023/10/29 03:06:05;;;;;;;;;1.00;1.00;;;;;-143.90;100.00;74758.75;4988767;27;101870;-79
2023/10/29 03:08:32;;;;;;;;;1.00;1.00;;;;;-143.90;100.00;74754.63;4989830;27;102090;-77
2023/10/29 03:11:00;;;;;;;;;0.75;0.75;;;;;-143.90;100.00;74767.03;4985839;27;102928;-79
2023/10/29 03:13:27;;;;;;;;;2.25;2.00;;;;;-143.90;100.00;74758.75;4980241;28;101851;-77
2023/10/29 03:15:53;;;;;;;;;0.50;0.50;;;;;-143.90;100.00;74758.75;4989772;28;101607;-78
2023/10/29 03:18:21;;;;;;;;;1.00;1.00;;;;;-143.90;100.00;74754.63;4989797;28;101671;-77
2023/10/29 03:20:48;;;;;;;;;1.00;1.00;;;;;-143.90;100.00;74762.91;4990341;27;103611;-78
2023/10/29 03:23:15;;;;;;;;;1.00;1.00;;;;;-143.90;100.00;74758.75;4987274;27;102558;-79
2023/10/29 03:25:44;;;;;;;;;1.00;1.00;;;;;-143.90;100.00;74767.03;4987579;28;101709;-80
2023/10/29 03:28:12;;;;;;;;;0.25;0.25;;;;;-143.90;100.00;74771.16;4988316;27;102993;-79
2023/10/29 03:30:39;;;;;;;;;1.50;0.75;;;;;-143.90;100.00;74758.75;4987934;27;103427;-78
2023/10/29 03:33:05;;;;;;;;;1.50;1.50;;;;;-143.90;100.00;74758.75;4985607;28;101963;-79
2023/10/29 03:35:32;;;;;;;;;1.25;1.25;;;;;-143.90;100.00;74758.75;4995992;28;101874;-78
2023/10/29 03:37:59;;;;;;;;;8.25;7.50;;;;;-143.90;100.00;74783.56;4996575;27;101871;-77
2023/10/29 03:40:25;;;;;;;;;11.00;10.00;;;;;-143.90;100.00;74795.97;4990218;28;104376;-78
2023/10/29 03:42:52;;;;;;;;;10.00;8.50;;;;;-143.90;100.00;74804.25;4987357;27;101603;-79
2023/10/29 03:45:19;;;;;;;;;10.50;9.25;;;;;-143.90;100.00;74833.19;4995345;28;101862;-79
2023/10/29 03:47:46;;;;;;;;;7.33;5.00;;;;;-143.90;100.00;74841.44;4810686;28;5002566;-79
2023/10/29 03:50:13;;;;;;;;;9.00;8.50;;;;;-143.90;100.00;74835.25;4987004;28;103438;-79
2023/10/29 03:52:40;;;;;;;;;9.00;8.00;;;;;-143.90;100.00;74839.38;4993807;28;101849;-79
2023/10/29 03:55:06;;;;;;;;;5.00;5.00;;;;;-143.90;100.00;74831.13;4989660;28;101811;-79
2023/10/29 03:57:33;;;;;;;;;7.00;5.00;;;;;-143.90;100.00;74845.59;4996246;27;101729;-78
2023/10/29 04:00:00;;;;;;;;;3.25;3.25;;;;;-143.90;100.00;74862.13;4997686;27;103699;-79
2023/10/29 04:02:26;;;;;;;;;4.50;3.00;;;;;-143.90;100.00;74880.72;4999681;27;101681;-78
2023/10/29 04:04:53;;;;;;;;;4.25;4.00;;;;;-143.90;100.00;74889.00;4993953;27;101935;-75
2023/10/29 04:07:34;;;;;;;;;1.75;1.75;;;;;-143.90;100.00;74899.34;4975337;27;102428;-78
2023/10/29 04:10:02;;;;;;;;;2.75;2.75;;;;;-143.90;100.00;74909.66;4998775;27;103348;-78
2023/10/29 04:12:29;;;;;;;;;4.00;3.00;;;;;-143.90;100.00;74917.94;4997392;27;101688;-79
2023/10/29 04:14:55;;;;;;;;;3.50;2.50;;;;;-143.90;100.00;74928.28;4993322;27;101827;-78
2023/10/29 04:17:22;;;;;;;;;15.50;13.25;;;;;-143.90;100.00;74940.69;4995582;28;101664;-78
2023/10/29 04:19:49;;;;;;;;;11.25;10.75;;;;;-143.90;100.00;74969.63;4995027;27;108056;-79
2023/10/29 04:22:16;;;;;;;;;16.50;15.00;;;;;-143.90;100.00;74977.88;5001079;27;101635;-78
2023/10/29 04:24:42;;;;;;;;;15.25;14.75;;;;;-143.90;100.00;74988.22;4978100;27;101706;-79
2023/10/29 04:27:09;;;;;;;;;12.50;10.00;;;;;-143.90;100.00;74990.28;4996169;27;101733;-79
2023/10/29 04:29:36;;;;;;;;;13.75;11.75;;;;;-143.90;100.00;74994.44;4991818;28;103411;-79
2023/10/29 04:32:02;;;;;;;;;16.50;14.00;;;;;-143.90;100.00;74990.28;4990268;28;101550;-79
2023/10/29 04:34:29;;;;;;;;;15.75;10.00;;;;;-143.90;100.00;74990.28;5005150;27;103164;-78
2023/10/29 04:36:55;;;;;;;;;9.50;8.25;;;;;-143.90;100.00;74998.56;4997677;28;101711;-78
2023/10/29 04:39:22;;;;;;;;;7.50;7.25;;;;;-143.90;100.00;75006.84;5000080;28;103438;-78
2023/10/29 04:41:49;;;;;;;;;8.25;7.00;;;;;-143.90;100.00;75017.16;4971742;28;101929;-79
2023/10/29 04:44:16;;;;;;;;;7.00;7.00;;;;;-143.90;100.00;75015.09;4992122;28;101918;-78
2023/10/29 04:46:43;;;;;;;;;7.25;7.00;;;;;-143.90;100.00;75029.56;5001012;27;101769;-79
2023/10/29 04:49:09;;;;;;;;;3.25;3.25;;;;;-143.90;100.00;75039.91;4995656;27;103678;-80
2023/10/29 04:51:36;;;;;;;;;6.00;6.00;;;;;-143.90;100.00;75052.31;4995197;27;101615;-79
2023/10/29 04:54:02;;;;;;;;;13.50;11.50;;;;;-143.90;100.00;75072.97;4994271;27;101922;-78
2023/10/29 04:56:30;;;;;;;;;13.25;10.75;;;;;-143.90;100.00;75068.84;4994719;28;102024;-79
2023/10/29 04:58:56;;;;;;;;;11.25;10.75;;;;;-143.90;100.00;75083.31;4998117;27;103365;-78
2023/10/29 05:01:23;;;;;;;;;11.25;11.25;;;;;-143.90;100.00;75083.31;5002042;27;101931;-79
2023/10/29 05:03:51;;;;;;;;;8.25;7.50;;;;;-143.90;100.00;75085.38;4997726;27;101726;-80
2023/10/29 05:06:21;;;;;;;;;11.75;10.00;;;;;-143.90;100.00;75083.31;4991480;27;101558;-79
2023/10/29 05:08:49;;;;;;;;;9.75;8.00;;;;;-143.90;100.00;75089.53;4991958;28;103427;-77
2023/10/29 05:11:16;;;;;;;;;6.00;6.00;;;;;-143.90;100.00;75093.66;4997642;27;102611;-79
2023/10/29 05:13:43;;;;;;;;;7.75;7.00;;;;;-143.90;100.00;75101.94;4997823;27;101696;-79
2023/10/29 05:16:11;;;;;;;;;9.75;7.00;;;;;-143.90;100.00;75114.34;4998628;28;101994;-79
2023/10/29 05:18:38;;;;;;;;;7.50;7.00;;;;;-143.90;100.00;75116.41;4993092;28;103522;-77
2023/10/29 05:21:04;;;;;;;;;7.50;7.25;;;;;-143.90;100.00;75126.75;4993887;27;105462;-77
2023/10/29 05:23:31;;;;;;;;;14.75;13.25;;;;;-143.90;100.00;75143.28;4994473;27;101604;-78
2023/10/29 05:25:58;;;;;;;;;13.00;12.75;;;;;-143.90;100.00;75139.16;4996008;28;101617;-78
2023/10/29 05:28:25;;;;;;;;;14.75;13.50;;;;;-143.90;100.00;75139.16;4998563;27;103383;-79
2023/10/29 05:30:51;;;;;;;;;11.00;9.00;;;;;-143.90;100.00;75143.28;4973582;28;101733;-78
2023/10/29 05:33:19;;;;;;;;;8.25;7.00;;;;;-143.90;100.00;75145.34;4998451;28;101911;-79
2023/10/29 05:35:45;;;;;;;;;8.00;7.25;;;;;-143.90;100.00;75153.63;5003462;27;101998;-79
2023/10/29 05:38:12;;;;;;;;;12.00;10.00;;;;;-143.90;100.00;75155.69;4996780;28;103413;-79
2023/10/29 05:40:39;;;;;;;;;4.00;4.00;;;;;-143.90;100.00;75151.53;4993949;28;101795;-78
2023/10/29 05:43:05;;;;;;;;;10.00;9.00;;;;;-143.90;100.00;75155.69;4995705;27;101720;-79
2023/10/29 05:45:32;;;;;;;;;12.25;9.00;;;;;-143.90;100.00;75139.16;4999101;27;102020;-78
2023/10/29 05:47:58;;;;;;;;;4.75;4.00;;;;;-143.90;100.00;75143.28;5000207;27;103558;-78
2023/10/29 05:50:25;;;;;;;;;5.50;5.50;;;;;-143.90;100.00;75145.34;4997160;27;101705;-78
2023/10/29 05:52:52;;;;;;;;;7.75;6.50;;;;;-143.90;100.00;75147.41;4994328;27;101981;-78
2023/10/29 05:55:22;;;;;;;;;13.25;10.75;;;;;-143.90;100.00;75151.53;4995020;28;102295;-79
2023/10/29 05:57:49;;;;;;;;;17.00;14.75;;;;;-143.90;100.00;75155.69;4997691;27;103379;-78
2023/10/29 06:00:16;;;;;;;;;18.75;18.25;;;;;-143.90;100.00;75168.09;4999156;27;102017;-78
2023/10/29 06:02:42;;;;;;;;;22.00;19.00;;;;;-143.90;100.00;75172.22;4983496;27;101907;-79
2023/10/29 06:05:09;;;;;;;;;18.75;17.25;;;;;-143.90;100.00;75174.28;4995362;28;101629;-79
2023/10/29 06:07:37;;;;;;;;;16.00;13.75;;;;;-143.90;100.00;75163.94;4992742;28;103485;-79
2023/10/29 06:10:04;;;;;;;;;15.00;13.25;;;;;-143.90;100.00;75153.63;5000597;27;101542;-78
2023/10/29 06:12:30;;;;;;;;;16.25;14.00;;;;;-143.90;100.00;75151.53;5000666;27;102018;-78
2023/10/29 06:14:57;;;;;;;;;11.00;10.50;;;;;-143.90;100.00;75155.69;4977538;28;101916;-79
2023/10/29 06:17:24;;;;;;;;;20.50;19.25;;;;;-143.90;100.00;75149.47;4996128;27;104776;-79
2023/10/29 06:19:53;;;;;;;;;15.50;14.75;;;;;-143.90;100.00;75135.00;4990510;28;101865;-78
2023/10/29 06:22:20;;;;;;;;;25.00;21.75;;;;;-143.90;100.00;75143.28;4995363;28;101966;-78
2023/10/29 06:24:46;;;;;;;;;19.00;14.00;;;;;-143.90;100.00;75122.59;5003439;28;101803;-80
2023/10/29 06:27:13;;;;;;;;;18.00;15.75;;;;;-143.90;100.00;75118.47;4995126;28;103087;-78
2023/10/29 06:29:40;;;;;;;;;30.25;26.75;;;;;-143.90;100.00;75106.06;4975983;28;101778;-78
2023/10/29 06:32:07;;;;;;;;;19.00;15.00;;;;;-143.90;100.00;75093.66;4971430;28;101491;-77
2023/10/29 06:34:34;;;;;;;;;19.50;18.50;;;;;-143.90;100.00;75079.19;5002138;27;105482;-78
2023/10/29 06:37:00;;;;;;;;;16.00;15.25;;;;;-143.90;100.00;75064.72;4998677;27;106784;-79
2023/10/29 06:39:27;;;;;;;;;17.00;14.00;;;;;-143.90;100.00;75050.25;4986453;27;102367;-78
2023/10/29 06:41:53;;;;;;;;;31.25;27.00;;;;;-143.90;100.00;75041.97;4993751;27;101985;-79
2023/10/29 06:44:20;;;;;;;;;35.75;27.25;;;;;-143.90;100.00;75023.38;4992251;27;102016;-80
2023/10/29 06:46:47;;;;;;;;;37.25;33.25;;;;;-143.90;100.00;75006.84;4993187;28;103393;-79
2023/10/29 06:49:13;;;;;;;;;47.25;40.00;;;;;-143.90;100.00;74990.28;4991894;27;101868;-79
2023/10/29 06:51:40;;;;;;;;;29.25;26.50;;;;;-143.90;100.00;74973.75;4995585;27;102036;-80
2023/10/29 06:54:07;;;;;;;;;47.00;38.50;;;;;-143.90;100.00;74957.22;4992266;28;102006;-78
2023/10/29 06:56:33;;;;;;;;;56.75;44.75;;;;;-143.90;100.00;74948.94;4988981;28;104007;-80
2023/10/29 06:59:00;;;;;;;;;50.25;40.25;;;;;-143.90;100.00;74926.22;4995107;27;102219;-80
2023/10/29 07:01:26;;;;;;;;;49.50;41.00;;;;;-143.90;100.00;74915.88;4994648;27;102056;-80
2023/10/29 07:03:54;;;;;;;;;37.00;35.00;;;;;-143.90;100.00;74897.25;4991619;27;101702;-79
2023/10/29 07:06:21;;;;;;;;;26.75;23.00;;;;;-143.90;100.00;74878.66;4971686;28;103620;-79
2023/10/29 07:08:47;;;;;;;;;23.00;18.75;;;;;-143.90;100.00;74845.59;4993412;27;101665;-79
2023/10/29 07:11:14;;;;;;;;;23.00;21.50;;;;;-143.90;100.00;74833.19;4995202;28;102476;-79
2023/10/29 07:13:41;;;;;;;;;20.25;20.00;;;;;-143.90;100.00;74804.25;4997991;28;101478;-80
2023/10/29 07:16:09;;;;;;;;;15.75;15.00;;;;;-143.90;100.00;74789.78;4991337;27;103648;-80
2023/10/29 07:18:36;;;;;;;;;14.25;10.25;;;;;-143.90;100.00;74769.09;4985075;27;103223;-78
2023/10/29 07:21:04;;;;;;;;;10.50;9.50;;;;;-143.90;100.00;74748.44;4998245;27;101953;-79
2023/10/29 07:23:31;;;;;;;;;6.00;5.00;;;;;-143.90;100.00;74733.97;4996790;28;101933;-80
2023/10/29 07:25:58;;;;;;;;;4.00;4.00;;;;;-143.90;100.00;74711.22;5000117;28;103428;-79
2023/10/29 07:28:26;;;;;;;;;4.25;4.00;;;;;-143.90;100.00;74686.41;4996456;28;103148;-80
2023/10/29 07:30:53;;;;;;;;;3.00;3.00;;;;;-143.90;100.00;74659.53;4991932;28;101770;-79
2023/10/29 07:33:19;;;;;;;;;1.50;1.50;;;;;-143.90;100.00;74651.28;4984424;28;102016;-81
2023/10/29 07:35:46;;;;;;;;;1.50;1.50;;;;;-143.90;100.00;74622.34;4996722;28;103424;-80
2023/10/29 07:38:13;;;;;;;;;2.00;1.00;;;;;-143.90;100.00;74597.53;4990118;28;101884;-80
2023/10/29 07:40:40;;;;;;;;;1.00;0.50;;;;;-143.90;100.00;74574.78;4984347;27;101844;-79
2023/10/29 07:43:07;;;;;;;;;1.00;1.00;;;;;-143.90;100.00;74556.19;4982191;28;101985;-78
2023/10/29 07:45:33;;;;;;;;;2.00;2.00;;;;;-143.90;100.00;74543.78;4980810;28;103588;-81
2023/10/29 07:48:00;;;;;;;;;1.25;1.00;;;;;-143.90;100.00;74523.09;4993946;28;102378;-80
2023/10/29 07:50:27;;;;;;;;;1.00;1.00;;;;;-143.90;100.00;74504.50;4985737;28;102897;-80
2023/10/29 07:52:54;;;;;;;;;0.75;0.50;;;;;-143.90;100.00;74481.78;4972778;27;101710;-80
2023/10/29 07:55:21;;;;;;;;;1.00;1.00;;;;;-143.90;99.09;74467.31;4986945;28;103730;-78
2023/10/29 07:57:48;;;;;;;;;1.50;1.50;;;;;-143.90;93.60;74461.09;5001363;27;101693;-79
2023/10/29 08:00:15;;;;;;;;;1.00;1.00;;;;;-143.90;97.41;74438.38;4991543;27;101589;-79
2023/10/29 08:02:43;;;;;;;;;2.75;2.00;;;;;-143.90;93.56;74434.22;4974690;28;101881;-80
2023/10/29 08:05:10;;;;;;;;;1.75;1.25;;;;;-143.90;95.38;74419.75;4986941;27;103377;-81
2023/10/29 08:07:38;;;;;;;;;1.50;1.50;;;;;-143.90;96.00;74413.56;4966010;28;101681;-79
2023/10/29 08:10:05;;;;;;;;;2.75;1.75;;;;;-143.90;96.72;74407.34;4992470;27;101769;-80
2023/10/29 08:12:34;;;;;;;;;1.00;0.00;;;;;-143.90;96.55;74388.75;4992869;27;101997;-79
2023/10/29 08:15:02;;;;;;;;;1.00;1.00;;;;;-143.90;94.84;74378.41;4968164;27;107785;-80
2023/10/29 08:17:29;;;;;;;;;1.00;1.00;;;;;-143.90;96.62;74370.16;4989696;28;101937;-78
2023/10/29 08:19:58;;;;;;;;;0.00;0.00;;;;;-143.90;95.21;74355.69;4990625;27;101967;-80
2023/10/29 08:22:25;;;;;;;;;1.25;1.25;;;;;-143.90;91.04;74343.28;4986658;28;102549;-81
2023/10/29 08:24:54;;;;;;;;;1.00;1.00;;;;;-143.90;93.67;74320.53;4981663;28;103444;-79
2023/10/29 08:27:20;;;;;;;;;1.00;1.00;;;;;-143.90;91.76;74304.00;4991037;27;101585;-81
2023/10/29 08:29:49;;;;;;;;;1.50;1.50;;;;;-143.90;87.30;74287.47;4966614;28;103214;-81
2023/10/29 08:32:16;;;;;;;;;3.00;1.75;;;;;-143.90;87.65;74285.41;4991300;27;103024;-80
2023/10/29 08:34:43;;;;;;;;;1.75;1.75;;;;;-143.90;86.67;74270.94;4987676;27;102891;-80
2023/10/29 08:37:10;;;;;;;;;2.00;1.00;;;;;-143.90;86.76;74254.41;4991365;27;102061;-84
2023/10/29 08:39:37;;;;;;;;;2.00;2.00;;;;;-143.90;84.78;74246.13;4991827;27;102711;-87
2023/10/29 08:42:04;;;;;;;;;2.00;2.00;;;;;-143.90;86.54;74221.31;4973385;28;101820;-87
2023/10/29 08:44:31;;;;;;;;;2.00;1.00;;;;;-143.90;86.81;74204.78;4986624;28;107957;-80
2023/10/29 08:46:57;;;;;;;;;2.75;2.00;;;;;-143.90;83.45;74192.41;4989782;27;101951;-86
2023/10/29 08:49:24;;;;;;;;;3.00;2.00;;;;;-143.90;83.50;74175.84;4986778;27;101950;-85
2023/10/29 08:51:51;;;;;;;;;2.00;1.25;;;;;-143.90;84.86;74155.19;4986798;27;101608;-85
2023/10/29 08:54:18;;;;;;;;;2.00;2.00;;;;;-143.90;82.86;74151.06;4960830;28;103797;-87
2023/10/29 08:56:45;;;;;;;;;2.00;2.00;;;;;-143.90;82.44;74134.53;4989941;27;101774;-87
2023/10/29 08:59:15;;;;;;;;;0.75;0.75;;;;;-143.90;79.99;74134.53;4986683;27;102210;-86
2023/10/29 09:01:42;;;;;;;;;2.50;2.50;;;;;-143.90;80.51;74128.31;4988760;28;101908;-88
2023/10/29 09:04:10;;;;;;;;;2.00;2.00;;;;;-143.90;82.40;74113.84;4991213;27;103501;-87
2023/10/29 09:06:37;;;;;;;;;0.75;0.75;;;;;-143.90;79.11;74103.53;4971717;28;103219;-83
2023/10/29 09:09:04;;;;;;;;;1.00;1.00;;;;;-143.90;79.39;74093.19;4989174;27;101682;-87
2023/10/29 09:11:31;;;;;;;;;1.33;1.33;;;;;-143.90;80.64;74080.78;4997000;27;102815;-86
2023/10/29 09:13:59;;;;;;;;;3.00;2.00;;;;;-143.90;81.00;74068.38;4992653;27;103331;-87
2023/10/29 09:16:25;;;;;;;;;1.75;1.75;;;;;-143.90;79.80;74055.97;4990596;27;101994;-86
2023/10/29 09:18:52;;;;;;;;;1.50;1.50;;;;;-143.90;75.85;74035.31;4993898;27;101876;-87
2023/10/29 09:21:18;;;;;;;;;1.00;1.00;;;;;-143.90;76.46;74022.91;4992244;28;102203;-87
2023/10/29 09:23:45;;;;;;;;;1.00;1.00;;;;;-143.90;74.18;74010.50;4991901;27;104960;-88
2023/10/29 09:26:12;;;;;;;;;0.67;0.67;;;;;-143.90;72.93;73998.13;4983227;27;102010;-84
2023/10/29 09:28:42;;;;;;;;;0.67;0.67;;;;;-143.90;74.88;73981.56;4980740;27;101980;-86
2023/10/29 09:31:16;;;;;;;;;1.67;1.00;;;;;-143.90;73.19;73983.66;4982436;28;101771;-88
2023/10/29 09:33:44;;;;;;;;;0.00;0.00;;;;;-143.90;73.31;73973.31;4974960;27;107811;-87
2023/10/29 09:36:13;;;;;;;;;0.33;0.33;;;;;-143.90;72.66;73969.19;4996286;27;101873;-84
2023/10/29 09:38:41;;;;;;;;;1.00;1.00;;;;;-143.90;71.72;73948.50;4995299;27;101751;-85
2023/10/29 09:41:07;;;;;;;;;1.33;1.00;;;;;-143.90;71.90;73934.03;4994852;28;102693;-84
2023/10/29 09:43:43;;;;;;;;;0.00;0.00;;;;;-143.90;70.94;73917.50;4990788;28;103299;-89
2023/10/29 09:46:11;;;;;;;;;0.00;0.00;;;;;-143.90;71.95;73903.03;4978741;28;102085;-83
2023/10/29 09:48:39;;;;;;;;;0.00;0.00;;;;;-143.90;70.34;73890.63;4990549;27;103050;-88
2023/10/29 09:51:06;;;;;;;;;0.67;0.67;;;;;-143.90;69.18;73869.97;4974561;28;102038;-85
2023/10/29 09:53:36;;;;;;;;;1.00;1.00;;;;;-143.90;68.88;73857.56;4990324;27;103097;-88
2023/10/29 09:56:07;;;;;;;;;2.00;1.00;;;;;-143.90;68.81;73855.50;4992727;27;102000;-87
2023/10/29 09:58:35;;;;;;;;;1.00;1.00;;;;;-143.90;64.77;73855.50;4996748;27;103349;-87
2023/10/29 10:01:04;;;;;;;;;0.00;0.00;;;;;-143.90;65.11;73851.38;4988073;27;101681;-83
2023/10/29 10:03:31;;;;;;;;;1.00;1.00;;;;;-143.90;68.36;73841.03;4991852;28;103461;-85
2023/10/29 10:06:19;;;;;;;;;1.00;1.00;;;;;-143.90;67.85;73822.44;4918039;28;10001499;-83
2023/10/29 10:08:46;;;;;;;;;1.00;1.00;;;;;-143.90;65.08;73803.84;3422610;27;10001299;-83
2023/10/29 10:11:24;;;;;;;;;0.33;0.00;;;;;-143.90;66.80;73799.69;4995226;27;101582;-86
2023/10/29 10:13:51;;;;;;;;;2.67;2.00;;;;;-143.90;63.90;73783.16;4976391;28;101712;-84
2023/10/29 10:16:19;;;;;;;;;0.00;0.00;;;;;-143.90;62.98;73768.69;4995259;28;102008;-85
2023/10/29 10:18:50;;;;;;;;;0.33;0.33;;;;;-143.90;63.83;73745.97;5001637;27;107782;-85
2023/10/29 10:21:20;;;;;;;;;1.00;0.00;;;;;-143.90;60.70;73754.25;5006921;27;101714;-85
2023/10/29 10:23:51;;;;;;;;;3.00;2.33;;;;;-143.90;58.11;73750.09;4997610;27;101570;-84
2023/10/29 10:26:27;;;;;;;;;2.00;2.00;;;;;-143.90;56.77;73745.97;4993211;27;105500;-85
2023/10/29 10:28:55;;;;;;;;;2.00;2.00;;;;;-143.90;56.67;73745.97;4987724;27;108329;-85
2023/10/29 10:31:22;;;;;;;;;1.00;1.00;;;;;-143.90;61.19;73729.44;4989094;27;101567;-84
2023/10/29 10:33:51;;;;;;;;;2.00;1.00;;;;;-143.90;59.67;73729.44;4990629;28;102625;-86
2023/10/29 10:36:31;;;;;;;;;1.00;1.00;;;;;-143.90;59.74;73710.84;4994935;28;102126;-75
2023/10/29 10:38:58;;;;;;;;;1.67;1.67;;;;;-143.90;59.49;73696.38;4991054;27;108059;-86
2023/10/29 10:41:25;;;;;;;;;2.00;2.00;;;;;-143.90;56.67;73698.44;4990359;28;101814;-87
2023/10/29 10:44:07;;;;;;;;;0.00;0.00;;;;;-143.90;55.27;73702.56;4987741;28;102137;-88
2023/10/29 10:46:36;;;;;;;;;3.00;3.00;;;;;-143.90;55.73;73717.03;4987985;27;101812;-84
2023/10/29 10:49:07;;;;;;;;;1.00;1.00;;;;;-143.90;57.82;73712.91;4973910;28;104582;-85
2023/10/29 10:51:36;;;;;;;;;2.00;2.00;;;;;-143.90;57.36;73708.78;4987230;28;101702;-86
2023/10/29 10:54:04;;;;;;;;;1.00;1.00;;;;;-143.90;56.32;73712.91;4968054;28;101885;-84
2023/10/29 10:56:36;;;;;;;;;1.00;1.00;;;;;-143.90;55.21;73708.78;4984205;28;101710;-85
2023/10/29 10:59:08;;;;;;;;;2.33;2.00;;;;;-143.90;58.38;73700.50;4984248;28;103486;-83
2023/10/29 11:01:35;;;;;;;;;1.00;1.00;;;;;-143.90;58.04;73688.09;4988707;27;101889;-86